createdAt,value
2022-11-18T00:01:10.613Z,6.85
2022-11-18T00:03:38.130Z,3.95
2022-11-18T00:06:05.930Z,2.92
2022-11-18T00:08:32.643Z,3.15
2022-11-18T00:10:59.302Z,3.53
2022-11-18T00:13:44.575Z,3.63
2022-11-18T00:16:12.771Z,11.57
2022-11-18T00:18:39.953Z,3.85
2022-11-18T00:21:10.786Z,2.35
2022-11-18T00:23:38.324Z,10.50
2022-11-18T00:26:14.902Z,3.10
2022-11-18T00:28:42.153Z,2.60
2022-11-18T00:31:13.822Z,5.47
2022-11-18T00:33:40.894Z,2.00
2022-11-18T00:36:10.252Z,1.90
2022-11-18T00:38:37.371Z,3.70
2022-11-18T00:41:12.473Z,4.35
2022-11-18T00:43:39.562Z,3.15
2022-11-18T00:46:08.554Z,5.80
2022-11-18T00:48:39.352Z,3.17
2022-11-18T00:51:17.677Z,4.45
2022-11-18T00:53:44.949Z,2.40
2022-11-18T00:56:11.829Z,2.90
2022-11-18T00:58:38.574Z,3.08
2022-11-18T01:01:05.723Z,2.20
2022-11-18T01:03:32.609Z,4.38
2022-11-18T01:05:59.094Z,2.33
2022-11-18T01:08:26.079Z,4.28
2022-11-18T01:10:52.742Z,6.97
2022-11-18T01:13:22.880Z,8.73
2022-11-18T01:15:51.675Z,2.42
2022-11-18T01:18:20.824Z,5.68
2022-11-18T01:20:48.217Z,4.28
2022-11-18T01:23:14.986Z,2.58
2022-11-18T01:25:43.918Z,2.57
2022-11-18T01:28:11.531Z,3.20
2022-11-18T01:30:39.476Z,3.30
2022-11-18T01:33:06.467Z,2.88
2022-11-18T01:35:38.177Z,4.55
2022-11-18T01:38:05.467Z,4.33
2022-11-18T01:40:33.447Z,5.18
2022-11-18T01:43:00.140Z,1.95
2022-11-18T01:45:38.919Z,2.97
2022-11-18T01:48:16.922Z,3.38
2022-11-18T01:50:49.189Z,3.47
2022-11-18T01:53:21.879Z,2.92
2022-11-18T01:55:51.339Z,1.52
2022-11-18T01:58:26.110Z,3.08
2022-11-18T02:00:53.509Z,2.75
2022-11-18T02:03:21.212Z,1.80
2022-11-18T02:05:50.257Z,3.13
2022-11-18T02:08:18.528Z,2.70
2022-11-18T02:10:45.130Z,5.90
2022-11-18T02:13:12.934Z,5.85
2022-11-18T02:15:47.780Z,2.43
2022-11-18T02:18:50.087Z,2.03
2022-11-18T02:21:28.492Z,2.95
2022-11-18T02:24:00.768Z,3.20
2022-11-18T02:26:50.381Z,5.63
2022-11-18T02:29:30.908Z,5.43
2022-11-18T02:32:06.418Z,4.30
2022-11-18T02:34:36.064Z,5.15
2022-11-18T02:37:32.056Z,4.95
2022-11-18T02:40:01.067Z,6.45
2022-11-18T02:42:31.383Z,1.90
2022-11-18T02:45:03.382Z,2.42
2022-11-18T02:47:32.546Z,5.20
2022-11-18T02:50:04.697Z,2.15
2022-11-18T02:52:33.430Z,2.63
2022-11-18T02:55:01.571Z,5.10
2022-11-18T02:57:31.110Z,3.38
2022-11-18T02:59:57.734Z,3.70
2022-11-18T03:02:24.341Z,2.47
2022-11-18T03:04:56.172Z,4.47
2022-11-18T03:07:31.883Z,4.03
2022-11-18T03:10:00.638Z,2.78
2022-11-18T03:12:41.190Z,5.20
2022-11-18T03:15:41.132Z,3.25
2022-11-18T03:18:20.729Z,1.98
2022-11-18T03:21:10.288Z,5.30
2022-11-18T03:23:44.536Z,3.58
2022-11-18T03:26:33.209Z,9.57
2022-11-18T03:29:28.717Z,7.32
2022-11-18T03:32:09.237Z,2.78
2022-11-18T03:34:48.120Z,4.73
2022-11-18T03:37:18.142Z,3.60
2022-11-18T03:40:02.302Z,2.15
2022-11-18T03:42:38.555Z,3.47
2022-11-18T03:45:34.414Z,4.15
2022-11-18T03:48:09.227Z,3.37
2022-11-18T03:50:47.884Z,5.03
2022-11-18T03:53:17.671Z,5.85
2022-11-18T03:55:49.685Z,2.28
2022-11-18T03:58:21.920Z,3.17
2022-11-18T04:00:52.600Z,7.07
2022-11-18T04:03:19.459Z,6.07
2022-11-18T04:05:50.045Z,7.82
2022-11-18T04:08:23.486Z,2.33
2022-11-18T04:10:58.493Z,2.13
2022-11-18T04:13:29.570Z,4.97
2022-11-18T04:15:56.247Z,3.28
2022-11-18T04:18:23.015Z,2.55
2022-11-18T04:20:49.460Z,2.88
2022-11-18T04:23:15.865Z,5.35
2022-11-18T04:25:42.372Z,4.90
2022-11-18T04:28:08.928Z,1.80
2022-11-18T04:30:35.492Z,6.13
2022-11-18T04:33:06.586Z,7.07
2022-11-18T04:35:33.033Z,4.82
2022-11-18T04:37:59.514Z,4.03
2022-11-18T04:40:26.060Z,2.97
2022-11-18T04:42:52.588Z,2.03
2022-11-18T04:45:19.084Z,4.20
2022-11-18T04:47:45.624Z,2.30
2022-11-18T04:50:12.152Z,5.53
2022-11-18T04:52:38.646Z,3.95
2022-11-18T04:55:05.433Z,7.15
2022-11-18T04:57:31.955Z,3.33
2022-11-18T04:59:58.488Z,4.22
2022-11-18T05:02:25.050Z,3.27
2022-11-18T05:04:51.461Z,4.80
2022-11-18T05:07:18.534Z,2.05
2022-11-18T05:09:45.100Z,3.47
2022-11-18T05:12:31.632Z,2.03
2022-11-18T05:14:58.141Z,3.93
2022-11-18T05:17:25.036Z,2.08
2022-11-18T05:19:51.573Z,3.13
2022-11-18T05:22:19.230Z,3.45
2022-11-18T05:24:45.901Z,9.00
2022-11-18T05:27:13.864Z,5.20
2022-11-18T05:29:40.433Z,11.50
2022-11-18T05:32:06.948Z,2.20
2022-11-18T05:34:33.513Z,3.35
2022-11-18T05:37:00.101Z,3.75
2022-11-18T05:39:26.608Z,4.93
2022-11-18T05:42:12.716Z,7.95
2022-11-18T05:44:39.146Z,9.68
2022-11-18T05:47:09.073Z,3.58
2022-11-18T05:49:35.691Z,3.33
2022-11-18T05:52:03.564Z,6.40
2022-11-18T05:54:32.679Z,3.35
2022-11-18T05:56:59.878Z,6.60
2022-11-18T05:59:26.557Z,5.82
2022-11-18T06:02:18.477Z,7.78
2022-11-18T06:04:55.509Z,7.17
2022-11-18T06:07:27.876Z,4.63
2022-11-18T06:10:02.230Z,4.63
2022-11-18T06:12:37.255Z,2.70
2022-11-18T06:15:13.249Z,5.53
2022-11-18T06:18:23.684Z,1.63
2022-11-18T06:20:52.948Z,2.72
2022-11-18T06:23:21.607Z,7.90
2022-11-18T06:25:48.778Z,2.50
2022-11-18T06:28:17.313Z,1.88
2022-11-18T06:30:43.780Z,5.20
2022-11-18T06:33:10.953Z,3.08
2022-11-18T06:35:37.485Z,3.15
2022-11-18T06:38:04.000Z,4.25
2022-11-18T06:40:34.776Z,4.40
2022-11-18T06:43:27.846Z,4.73
2022-11-18T06:46:17.682Z,3.33
2022-11-18T06:48:44.420Z,3.22
2022-11-18T06:51:11.189Z,2.42
2022-11-18T06:53:38.142Z,3.50
2022-11-18T06:56:09.206Z,4.07
2022-11-18T06:58:36.194Z,2.25
2022-11-18T07:01:17.631Z,8.65
2022-11-18T07:03:46.263Z,4.93
2022-11-18T07:06:15.050Z,6.18
2022-11-18T07:08:42.633Z,2.37
2022-11-18T07:11:15.533Z,7.15
2022-11-18T07:13:43.917Z,4.00
2022-11-18T07:16:13.841Z,7.32
2022-11-18T07:18:43.312Z,2.30
2022-11-18T07:21:17.760Z,4.73
2022-11-18T07:23:44.646Z,3.30
2022-11-18T07:26:11.493Z,3.60
2022-11-18T07:28:38.921Z,4.28
2022-11-18T07:31:10.894Z,3.55
2022-11-18T07:33:38.510Z,6.27
2022-11-18T07:36:10.964Z,7.90
2022-11-18T07:38:39.333Z,3.38
2022-11-18T07:41:12.353Z,2.30
2022-11-18T07:43:39.581Z,6.72
2022-11-18T07:46:10.579Z,2.97
2022-11-18T07:48:37.933Z,2.55
2022-11-18T07:51:04.559Z,9.15
2022-11-18T07:53:32.161Z,3.85
2022-11-18T07:55:58.551Z,4.95
2022-11-18T07:58:25.163Z,8.97
2022-11-18T08:00:51.699Z,4.60
2022-11-18T08:03:18.422Z,5.60
2022-11-18T08:05:45.084Z,8.48
2022-11-18T08:08:11.646Z,3.70
2022-11-18T08:10:38.171Z,3.47
2022-11-18T08:13:04.689Z,4.70
2022-11-18T08:15:33.226Z,7.43
2022-11-18T08:18:10.968Z,3.80
2022-11-18T08:20:47.863Z,1.40
2022-11-18T08:23:15.445Z,5.63
2022-11-18T08:25:43.883Z,3.35
2022-11-18T08:28:11.484Z,4.18
2022-11-18T08:30:51.430Z,4.35
2022-11-18T08:33:17.950Z,8.93
2022-11-18T08:35:45.141Z,5.80
2022-11-18T08:38:11.994Z,2.67
2022-11-18T08:40:44.905Z,6.15
2022-11-18T08:43:11.682Z,6.50
2022-11-18T08:45:39.998Z,4.55
2022-11-18T08:48:12.020Z,3.43
2022-11-18T08:50:38.563Z,3.28
2022-11-18T08:53:05.189Z,3.10
2022-11-18T08:55:32.372Z,4.45
2022-11-18T08:58:00.361Z,3.20
2022-11-18T09:00:26.943Z,3.67
2022-11-18T09:02:54.301Z,4.03
2022-11-18T09:05:20.803Z,3.10
2022-11-18T09:07:47.397Z,3.15
2022-11-18T09:10:13.947Z,3.85
2022-11-18T09:12:40.373Z,3.43
2022-11-18T09:15:15.371Z,2.45
2022-11-18T09:17:48.284Z,5.40
2022-11-18T09:20:14.852Z,3.20
2022-11-18T09:22:41.321Z,3.17
2022-11-18T09:25:08.564Z,5.43
2022-11-18T09:27:35.106Z,6.70
2022-11-18T09:30:01.583Z,4.35
2022-11-18T09:32:28.190Z,2.80
2022-11-18T09:34:54.614Z,6.30
2022-11-18T09:37:21.053Z,4.67
2022-11-18T09:39:47.557Z,2.65
2022-11-18T09:42:39.920Z,2.53
2022-11-18T09:45:25.985Z,3.42
2022-11-18T09:47:59.685Z,6.70
2022-11-18T09:50:48.572Z,6.43
2022-11-18T09:53:25.946Z,7.53
2022-11-18T09:55:55.006Z,4.93
2022-11-18T09:58:29.140Z,4.93
2022-11-18T10:00:55.567Z,6.35
2022-11-18T10:03:33.621Z,3.33
2022-11-18T10:06:09.285Z,4.38
2022-11-18T10:09:13.645Z,3.88
2022-11-18T10:11:57.968Z,4.63
2022-11-18T10:14:55.344Z,5.68
2022-11-18T10:17:30.939Z,4.00
2022-11-18T10:20:12.251Z,2.97
2022-11-18T10:22:44.594Z,5.22
2022-11-18T10:25:17.475Z,4.38
2022-11-18T10:27:47.213Z,3.67
2022-11-18T10:30:25.632Z,7.40
2022-11-18T10:33:16.911Z,5.45
2022-11-18T10:35:43.711Z,5.63
2022-11-18T10:38:13.501Z,4.93
2022-11-18T10:40:45.766Z,8.23
2022-11-18T10:43:13.704Z,2.53
2022-11-18T10:45:40.186Z,7.88
2022-11-18T10:48:17.670Z,2.70
2022-11-18T10:50:55.496Z,5.68
2022-11-18T10:53:34.229Z,6.90
2022-11-18T10:56:13.512Z,4.57
2022-11-18T10:58:51.495Z,7.25
2022-11-18T11:01:27.439Z,3.78
2022-11-18T11:04:02.098Z,4.57
2022-11-18T11:06:34.076Z,5.18
2022-11-18T11:09:02.537Z,4.97
2022-11-18T11:11:34.127Z,3.58
2022-11-18T11:14:27.404Z,2.58
2022-11-18T11:17:06.722Z,6.00
2022-11-18T11:19:41.105Z,4.65
2022-11-18T11:22:10.942Z,5.70
2022-11-18T11:24:37.866Z,11.05
2022-11-18T11:30:14.824Z,8.00
2022-11-18T11:33:05.763Z,2.95
2022-11-18T11:35:50.366Z,4.83
2022-11-18T11:38:19.858Z,4.15
2022-11-18T11:40:59.167Z,4.13
2022-11-18T11:43:57.621Z,6.38
2022-11-18T11:46:38.736Z,3.88
2022-11-18T11:49:22.233Z,2.80
2022-11-18T11:52:03.182Z,8.18
2022-11-18T11:54:48.350Z,2.78
2022-11-18T11:58:00.433Z,6.00
2022-11-18T12:00:28.821Z,6.32
2022-11-18T12:03:27.717Z,4.47
2022-11-18T12:05:54.137Z,11.48
2022-11-18T12:08:24.610Z,11.75
2022-11-18T12:11:07.363Z,4.78
2022-11-18T12:13:45.536Z,6.10
2022-11-18T12:16:21.058Z,3.30
2022-11-18T12:19:01.794Z,6.90
2022-11-18T12:21:50.375Z,3.08
2022-11-18T12:24:20.599Z,6.03
2022-11-18T12:26:48.833Z,4.45
2022-11-18T12:29:18.752Z,2.80
2022-11-18T12:31:51.613Z,13.45
2022-11-18T12:34:19.541Z,6.28
2022-11-18T12:36:47.553Z,6.60
2022-11-18T12:39:26.397Z,6.28
2022-11-18T12:42:19.292Z,6.75
2022-11-18T12:44:49.665Z,4.72
2022-11-18T12:47:37.378Z,2.80
2022-11-18T12:50:07.981Z,6.28
2022-11-18T12:52:34.627Z,4.82
2022-11-18T12:55:04.549Z,4.95
2022-11-18T12:57:33.862Z,4.75
2022-11-18T13:00:23.462Z,8.27
2022-11-18T13:03:01.739Z,4.18
2022-11-18T13:05:34.567Z,4.70
2022-11-18T13:08:14.005Z,3.10
2022-11-18T13:11:15.173Z,4.03
2022-11-18T13:13:43.066Z,6.85
2022-11-18T13:16:40.771Z,4.72
2022-11-18T13:19:07.772Z,5.97
2022-11-18T13:21:54.095Z,5.83
2022-11-18T13:24:22.750Z,6.72
2022-11-18T13:26:56.526Z,7.07
2022-11-18T13:29:53.905Z,7.38
2022-11-18T13:32:27.306Z,7.55
2022-11-18T13:35:13.658Z,7.05
2022-11-18T13:37:54.428Z,6.60
2022-11-18T13:40:29.039Z,6.18
2022-11-18T13:42:56.080Z,5.38
2022-11-18T13:45:28.577Z,4.70
2022-11-18T13:47:55.085Z,7.88
2022-11-18T13:50:37.296Z,8.50
2022-11-18T13:53:13.895Z,6.47
2022-11-18T13:55:48.623Z,8.77
2022-11-18T13:58:18.531Z,7.55
2022-11-18T14:00:56.791Z,6.68
2022-11-18T14:03:39.782Z,8.82
2022-11-18T14:06:06.571Z,6.47
2022-11-18T14:08:36.487Z,9.32
2022-11-18T14:11:05.585Z,7.22
2022-11-18T14:14:14.844Z,4.53
2022-11-18T14:16:42.909Z,5.25
2022-11-18T14:19:30.725Z,7.18
2022-11-18T14:22:11.691Z,8.20
2022-11-18T14:24:42.013Z,11.05
2022-11-18T14:27:33.471Z,2.88
2022-11-18T14:30:00.016Z,6.00
2022-11-18T14:32:27.432Z,8.57
2022-11-18T14:34:59.290Z,8.57
2022-11-18T14:37:26.807Z,11.93
2022-11-18T14:39:58.056Z,9.48
2022-11-18T14:42:24.920Z,9.10
2022-11-18T14:44:51.597Z,8.38
2022-11-18T14:47:27.225Z,9.13
2022-11-18T14:49:54.392Z,6.70
2022-11-18T14:52:23.989Z,4.50
2022-11-18T14:54:52.125Z,7.97
2022-11-18T14:57:19.668Z,6.45
2022-11-18T14:59:46.439Z,5.63
2022-11-18T15:02:15.462Z,5.03
2022-11-18T15:04:43.033Z,8.20
2022-11-18T15:07:18.573Z,7.88
2022-11-18T15:09:50.420Z,5.80
2022-11-18T15:12:16.952Z,7.53
2022-11-18T15:14:43.496Z,7.75
2022-11-18T15:17:12.453Z,5.68
2022-11-18T15:19:42.390Z,6.70
2022-11-18T15:22:12.423Z,6.53
2022-11-18T15:24:42.047Z,11.23
2022-11-18T15:27:12.691Z,5.85
2022-11-18T15:29:40.432Z,7.70
2022-11-18T15:32:08.063Z,7.68
2022-11-18T15:34:34.577Z,5.03
2022-11-18T15:37:01.270Z,7.55
2022-11-18T15:39:28.093Z,7.25
2022-11-18T15:41:56.003Z,9.70
2022-11-18T15:44:22.438Z,12.95
2022-11-18T15:46:49.434Z,8.65
2022-11-18T15:49:17.878Z,14.27
2022-11-18T15:51:44.476Z,8.13
2022-11-18T15:54:11.414Z,4.70
2022-11-18T15:56:39.721Z,10.65
2022-11-18T15:59:11.718Z,7.82
2022-11-18T16:01:41.197Z,10.98
2022-11-18T16:04:14.392Z,9.90
2022-11-18T16:06:51.571Z,14.07
2022-11-18T16:09:18.776Z,12.70
2022-11-18T16:12:05.883Z,10.73
2022-11-18T16:14:33.156Z,16.80
2022-11-18T16:16:59.628Z,7.97
2022-11-18T16:19:27.009Z,7.80
2022-11-18T16:21:56.680Z,12.15
2022-11-18T16:24:27.116Z,9.65
2022-11-18T16:26:54.284Z,11.18
2022-11-18T16:29:21.318Z,11.00
2022-11-18T16:31:53.119Z,14.40
2022-11-18T16:34:25.119Z,35.28
2022-11-18T16:36:54.609Z,19.73
2022-11-18T16:39:27.163Z,19.67
2022-11-18T16:42:06.782Z,24.77
2022-11-18T16:44:34.804Z,20.13
2022-11-18T16:47:01.205Z,14.55
2022-11-18T16:49:31.859Z,10.88
2022-11-18T16:52:22.635Z,8.32
2022-11-18T16:54:49.332Z,10.95
2022-11-18T16:57:15.743Z,15.10
2022-11-18T16:59:42.148Z,14.75
2022-11-18T17:02:12.376Z,21.05
2022-11-18T17:04:39.393Z,10.63
2022-11-18T17:07:06.193Z,15.60
2022-11-18T17:09:33.091Z,15.07
2022-11-18T17:12:03.884Z,10.52
2022-11-18T17:14:30.629Z,13.77
2022-11-18T17:16:57.849Z,11.82
2022-11-18T17:19:24.963Z,9.30
2022-11-18T17:21:51.833Z,12.80
2022-11-18T17:24:22.113Z,16.10
2022-11-18T17:26:49.550Z,20.67
2022-11-18T17:29:16.587Z,21.13
2022-11-18T17:31:43.194Z,29.13
2022-11-18T17:34:11.740Z,23.20
2022-11-18T17:36:38.235Z,14.55
2022-11-18T17:39:04.698Z,19.40
2022-11-18T17:41:50.628Z,21.38
2022-11-18T17:44:18.485Z,17.23
2022-11-18T17:46:47.164Z,19.20
2022-11-18T17:49:18.985Z,17.63
2022-11-18T17:51:54.015Z,17.95
2022-11-18T17:54:24.295Z,15.85
2022-11-18T17:56:54.395Z,16.02
2022-11-18T17:59:21.521Z,16.93
2022-11-18T18:01:52.857Z,12.07
2022-11-18T18:04:22.370Z,10.88
2022-11-18T18:06:51.201Z,8.10
2022-11-18T18:09:21.799Z,12.25
2022-11-18T18:11:53.134Z,12.77
2022-11-18T18:14:19.790Z,13.05
2022-11-18T18:16:50.592Z,15.38
2022-11-18T18:19:20.568Z,12.23
2022-11-18T18:21:47.975Z,10.10
2022-11-18T18:24:17.398Z,10.20
2022-11-18T18:26:44.146Z,9.30
2022-11-18T18:29:11.811Z,13.20
2022-11-18T18:31:38.650Z,12.93
2022-11-18T18:34:05.747Z,12.30
2022-11-18T18:36:32.686Z,9.97
2022-11-18T18:39:02.895Z,10.50
2022-11-18T18:41:30.007Z,10.35
2022-11-18T18:43:57.746Z,13.27
2022-11-18T18:46:28.907Z,10.85
2022-11-18T18:48:57.102Z,17.58
2022-11-18T18:51:24.530Z,11.30
2022-11-18T18:53:54.262Z,10.05
2022-11-18T18:56:22.189Z,12.48
2022-11-18T18:58:52.237Z,11.82
2022-11-18T19:01:19.651Z,12.13
2022-11-18T19:03:46.448Z,14.55
2022-11-18T19:06:51.595Z,16.70
2022-11-18T19:09:09.228Z,15.13
2022-11-18T19:12:00.458Z,13.77
2022-11-18T19:14:28.504Z,14.23
2022-11-18T19:16:56.732Z,14.23
2022-11-18T19:19:45.044Z,16.13
2022-11-18T19:22:14.694Z,14.00
2022-11-18T19:24:49.740Z,14.93
2022-11-18T19:27:18.250Z,15.57
2022-11-18T19:29:45.835Z,22.30
2022-11-18T19:32:12.730Z,17.75
2022-11-18T19:34:40.125Z,20.48
2022-11-18T19:37:07.042Z,28.35
2022-11-18T19:39:34.812Z,26.97
2022-11-18T19:42:02.092Z,14.80
2022-11-18T19:44:28.746Z,19.90
2022-11-18T19:46:55.187Z,22.25
2022-11-18T19:49:22.140Z,26.23
2022-11-18T19:51:49.085Z,23.13
2022-11-18T19:54:15.567Z,21.23
2022-11-18T19:56:42.214Z,21.17
2022-11-18T19:59:08.663Z,21.23
2022-11-18T20:01:35.221Z,19.70
2022-11-18T20:04:03.070Z,29.40
2022-11-18T20:06:29.970Z,20.33
2022-11-18T20:08:57.135Z,20.10
2022-11-18T20:11:23.938Z,22.70
2022-11-18T20:13:51.189Z,19.20
2022-11-18T20:16:20.733Z,20.70
2022-11-18T20:18:56.710Z,19.73
2022-11-18T20:21:24.485Z,21.48
2022-11-18T20:23:54.961Z,20.13
2022-11-18T20:26:24.165Z,21.67
2022-11-18T20:28:57.024Z,20.17
2022-11-18T20:31:24.508Z,23.35
2022-11-18T20:33:54.116Z,24.23
2022-11-18T20:36:27.347Z,21.42
2022-11-18T20:38:58.232Z,22.60
2022-11-18T20:41:28.363Z,23.63
2022-11-18T20:43:55.079Z,15.93
2022-11-18T20:46:22.220Z,19.23
2022-11-18T20:48:49.624Z,18.77
2022-11-18T20:51:25.022Z,25.08
2022-11-18T20:53:54.285Z,17.87
2022-11-18T20:56:23.386Z,15.75
2022-11-18T20:58:50.390Z,16.00
2022-11-18T21:01:22.034Z,15.57
2022-11-18T21:03:58.501Z,18.85
2022-11-18T21:06:28.337Z,17.03
2022-11-18T21:08:57.842Z,15.98
2022-11-18T21:11:24.983Z,17.25
2022-11-18T21:14:10.221Z,15.80
2022-11-18T21:16:36.862Z,13.68
2022-11-18T21:19:04.748Z,15.17
2022-11-18T21:21:48.572Z,15.00
2022-11-18T21:24:17.794Z,14.18
2022-11-18T21:26:51.433Z,15.85
2022-11-18T21:29:18.553Z,17.63
2022-11-18T21:31:47.148Z,15.40
2022-11-18T21:34:15.350Z,14.70
2022-11-18T21:36:45.862Z,11.52
2022-11-18T21:39:17.946Z,13.85
2022-11-18T21:41:44.913Z,16.20
2022-11-18T21:44:13.786Z,12.40
2022-11-18T21:46:42.151Z,14.27
2022-11-18T21:49:09.409Z,10.65
2022-11-18T21:51:36.886Z,14.52
2022-11-18T21:54:04.097Z,14.45
2022-11-18T21:56:31.860Z,15.60
2022-11-18T21:59:01.116Z,15.15
2022-11-18T22:01:33.204Z,12.70
2022-11-18T22:04:02.681Z,10.80
2022-11-18T22:06:32.475Z,13.65
2022-11-18T22:09:06.253Z,12.60
2022-11-18T22:11:39.158Z,17.85
2022-11-18T22:14:07.908Z,13.40
2022-11-18T22:16:34.834Z,12.23
2022-11-18T22:19:08.191Z,11.88
2022-11-18T22:21:35.045Z,18.17
2022-11-18T22:24:02.000Z,14.85
2022-11-18T22:26:31.312Z,14.55
2022-11-18T22:28:58.733Z,17.83
2022-11-18T22:31:30.381Z,20.67
2022-11-18T22:33:57.018Z,17.80
2022-11-18T22:36:25.730Z,18.73
2022-11-18T22:38:53.411Z,18.13
2022-11-18T22:41:41.230Z,17.80
2022-11-18T22:44:09.647Z,16.10
2022-11-18T22:46:37.324Z,16.63
2022-11-18T22:49:04.752Z,18.55
2022-11-18T22:51:31.463Z,16.00
2022-11-18T22:54:22.732Z,18.75
2022-11-18T22:56:44.457Z,13.70
2022-11-18T22:59:11.940Z,23.20
2022-11-18T23:01:39.056Z,17.55
2022-11-18T23:04:05.904Z,15.90
2022-11-18T23:06:32.458Z,17.17
2022-11-18T23:08:59.007Z,19.75
2022-11-18T23:11:44.354Z,16.77
2022-11-18T23:14:11.133Z,23.17
2022-11-18T23:16:40.659Z,17.83
2022-11-18T23:19:10.936Z,24.45
2022-11-18T23:21:37.601Z,20.40
2022-11-18T23:24:04.787Z,14.13
2022-11-18T23:26:32.003Z,17.40
2022-11-18T23:28:58.719Z,20.98
2022-11-18T23:31:26.773Z,17.50
2022-11-18T23:33:55.634Z,18.77
2022-11-18T23:36:22.541Z,15.23
2022-11-18T23:38:49.238Z,17.40
2022-11-18T23:41:17.928Z,19.42
2022-11-18T23:43:46.868Z,20.65
2022-11-18T23:46:14.793Z,13.15
2022-11-18T23:48:42.778Z,18.80
2022-11-18T23:51:23.257Z,17.77
2022-11-18T23:53:57.147Z,20.92
2022-11-18T23:56:26.126Z,19.10
2022-11-18T23:58:54.112Z,15.90
